Accueil
METAR-TAF:

METAR-TAF

Aéroports :

Guernesey,

Aéroport de Guernesey

latitude: 49-26N, longitude: 002-36W, altitude: 102 m

Observation

Le bulletin a été fait il y a 13 minutes, à 12:20 UTC
Vent 13 kt de est/nord-est
Température 4°C
Humidité 60%
Pression 1016 hPa
Visibilité 10 km ou plus
Quelques nuages à une hauteur de 2200 ft

METAR: EGJB 231220Z 07013KT 9999 FEW022 04/M03 Q1016

Heure: 12:33 (12:33 UTC)

Prévision

Le bulletin a été fait il y a 1 heure et 31 minutes, à 11:02 UTC
Prévision valable du 23 à 12 UTC au 23 à 21 UTC
Vent 18 kt de est
Visibilité 10 km ou plus
Quelques nuages à une hauteur de 2500 ft

TAF: EGJB 231102Z 2312/2321 09018KT 9999 FEW025

Observations et prévisions météorologiques de plus de 4000 aéroports (messages METAR et TAF).

Les stations disponibles sont représentées par des disques jaunes et rouges sur la carte.

Passer la souris dessus pour voir le nom de la station.

Cliquer dessus pour voir les observations et prévisions météorologiques.

Pour changer de carte: cliquez sur les boutons verts avec une croix noire pour zoomer, sur le bouton vert avec un tiret pour effectuer un zoom arrière, ou sur les flèches vertes pour les cartes adjacentes.


METAR-TAF: